Time;durP1;ratioP1;P1;durP2;ratioP2;P2;SDS_P1;SDS_P2;PMS_P1;PMS_P2;Temp;Humidity;BMP_temperature;BMP_pressure;BME280_temperature;BME280_humidity;BME280_pressure;Samples;Min_cycle;Max_cycle;Signal;HPM_P1;HPM_P2
2022/11/13 00:01:12;;;;;;;106.77;19.60;;;;;;;;;;5075541;28;20452;-69
2022/11/13 00:03:39;;;;;;;140.40;19.23;;;;;;;;;;5075921;28;20447;-69
2022/11/13 00:06:07;;;;;;;237.27;27.27;;;;;;;;;;5075446;28;20498;-69
2022/11/13 00:08:34;;;;;;;116.13;20.20;;;;;;;;;;5075430;28;20448;-69
2022/11/13 00:11:02;;;;;;;200.77;24.87;;;;;;;;;;5075852;28;20436;-69
2022/11/13 00:13:29;;;;;;;196.20;25.97;;;;;;;;;;5075458;28;20469;-69
2022/11/13 00:15:58;;;;;;;144.30;22.23;;;;;;;;;;5075765;28;20482;-69
2022/11/13 00:18:25;;;;;;;127.67;18.73;;;;;;;;;;5075562;28;20781;-69
2022/11/13 00:20:52;;;;;;;140.17;22.63;;;;;;;;;;5075636;28;20448;-69
2022/11/13 00:23:20;;;;;;;114.20;21.00;;;;;;;;;;5075768;28;20448;-69
2022/11/13 00:25:47;;;;;;;182.43;27.40;;;;;;;;;;5075324;28;20835;-70
2022/11/13 00:28:14;;;;;;;137.80;23.83;;;;;;;;;;5075299;28;20444;-69
2022/11/13 00:30:41;;;;;;;125.63;21.87;;;;;;;;;;5075693;28;20431;-69
2022/11/13 00:33:10;;;;;;;158.80;25.50;;;;;;;;;;5075669;28;20454;-70
2022/11/13 00:35:37;;;;;;;82.80;20.10;;;;;;;;;;5075172;28;20496;-69
2022/11/13 00:38:04;;;;;;;76.03;18.77;;;;;;;;;;5073885;28;20535;-69
2022/11/13 00:40:31;;;;;;;143.77;20.30;;;;;;;;;;5074848;28;20485;-69
2022/11/13 00:42:59;;;;;;;146.87;22.70;;;;;;;;;;5075496;28;20452;-69
2022/11/13 00:45:26;;;;;;;89.20;17.67;;;;;;;;;;5075119;28;20974;-69
2022/11/13 00:47:53;;;;;;;139.53;23.90;;;;;;;;;;5075162;28;20458;-69
2022/11/13 00:50:21;;;;;;;93.17;19.60;;;;;;;;;;5075835;28;20803;-69
2022/11/13 00:52:48;;;;;;;150.80;23.77;;;;;;;;;;5075325;28;20447;-69
2022/11/13 00:55:16;;;;;;;62.50;19.13;;;;;;;;;;5074665;28;20459;-69
2022/11/13 00:57:43;;;;;;;109.70;20.07;;;;;;;;;;5074946;28;20498;-69
2022/11/13 01:00:10;;;;;;;121.57;20.40;;;;;;;;;;5075211;28;20928;-69
2022/11/13 01:02:38;;;;;;;115.43;21.50;;;;;;;;;;5075214;28;20451;-69
2022/11/13 01:05:05;;;;;;;58.03;15.90;;;;;;;;;;5074307;28;20448;-69
2022/11/13 01:07:35;;;;;;;83.77;20.03;;;;;;;;;;5074760;28;20483;-69
2022/11/13 01:10:03;;;;;;;69.90;17.23;;;;;;;;;;5073759;28;20450;-70
2022/11/13 01:12:30;;;;;;;106.83;21.90;;;;;;;;;;5074717;28;20431;-70
2022/11/13 01:14:57;;;;;;;122.47;17.97;;;;;;;;;;5074364;28;20464;-69
2022/11/13 01:17:24;;;;;;;51.50;16.83;;;;;;;;;;5074785;28;20491;-69
2022/11/13 01:19:51;;;;;;;55.67;15.27;;;;;;;;;;5074861;28;20814;-69
2022/11/13 01:22:19;;;;;;;98.53;18.47;;;;;;;;;;5074638;28;20458;-69
2022/11/13 01:24:47;;;;;;;124.30;20.00;;;;;;;;;;5074371;28;20458;-69
2022/11/13 01:27:14;;;;;;;132.20;19.27;;;;;;;;;;5074606;28;20509;-69
2022/11/13 01:29:42;;;;;;;128.13;17.77;;;;;;;;;;5074514;28;20479;-69
2022/11/13 01:32:09;;;;;;;104.00;18.67;;;;;;;;;;5074483;28;20455;-69
2022/11/13 01:34:36;;;;;;;126.97;19.33;;;;;;;;;;5074141;28;20813;-69
2022/11/13 01:37:04;;;;;;;91.87;16.83;;;;;;;;;;5072955;28;20511;-69
2022/11/13 01:39:31;;;;;;;32.27;13.53;;;;;;;;;;5073867;28;20451;-69
2022/11/13 01:42:01;;;;;;;39.67;13.30;;;;;;;;;;5074318;28;20438;-69
2022/11/13 01:44:45;;;;;;;23.23;12.20;;;;;;;;;;5073958;28;20447;-69
2022/11/13 01:47:13;;;;;;;39.43;12.07;;;;;;;;;;5074145;28;20472;-69
2022/11/13 01:49:41;;;;;;;21.93;11.90;;;;;;;;;;5074130;28;21011;-69
2022/11/13 01:52:10;;;;;;;31.93;13.40;;;;;;;;;;5073773;28;20452;-69
2022/11/13 01:54:39;;;;;;;43.47;14.17;;;;;;;;;;5073756;28;20455;-69
2022/11/13 01:57:07;;;;;;;19.73;11.20;;;;;;;;;;5073578;28;20498;-69
2022/11/13 01:59:36;;;;;;;25.17;12.77;;;;;;;;;;5074027;28;20456;-69
2022/11/13 02:02:03;;;;;;;41.40;13.37;;;;;;;;;;5073568;28;20462;-69
2022/11/13 02:04:30;;;;;;;54.73;14.70;;;;;;;;;;5073537;28;20494;-69
2022/11/13 02:06:59;;;;;;;63.00;12.90;;;;;;;;;;5073864;28;20937;-69
2022/11/13 02:09:27;;;;;;;27.27;11.93;;;;;;;;;;5072720;28;20445;-69
2022/11/13 02:11:54;;;;;;;52.27;14.43;;;;;;;;;;5073691;28;20436;-69
2022/11/13 02:14:24;;;;;;;62.07;14.80;;;;;;;;;;5072836;28;20460;-69
2022/11/13 02:16:53;;;;;;;68.40;14.47;;;;;;;;;;5073108;28;20471;-69
2022/11/13 02:19:24;;;;;;;69.73;16.10;;;;;;;;;;5073631;28;20454;-69
2022/11/13 02:21:55;;;;;;;41.93;15.57;;;;;;;;;;5072909;28;20927;-69
2022/11/13 02:24:26;;;;;;;65.60;14.67;;;;;;;;;;5073163;28;20792;-69
2022/11/13 02:26:55;;;;;;;47.00;14.00;;;;;;;;;;5073321;28;20475;-69
2022/11/13 02:29:22;;;;;;;65.50;14.93;;;;;;;;;;5073498;28;20932;-69
2022/11/13 02:31:49;;;;;;;64.00;14.63;;;;;;;;;;5073056;28;20459;-69
2022/11/13 02:34:16;;;;;;;176.73;21.73;;;;;;;;;;5073021;28;20462;-69
2022/11/13 02:36:43;;;;;;;124.90;16.03;;;;;;;;;;5073107;28;20992;-69
2022/11/13 02:39:12;;;;;;;66.47;17.10;;;;;;;;;;5071929;28;20462;-69
2022/11/13 02:41:41;;;;;;;62.10;14.90;;;;;;;;;;5072865;28;20432;-69
2022/11/13 02:44:08;;;;;;;35.00;13.87;;;;;;;;;;5072558;28;20458;-69
2022/11/13 02:46:35;;;;;;;32.97;13.00;;;;;;;;;;5072804;28;20478;-69
2022/11/13 02:49:02;;;;;;;54.60;14.17;;;;;;;;;;5073219;28;20897;-69
2022/11/13 02:51:30;;;;;;;15.87;11.50;;;;;;;;;;5072880;28;20458;-69
2022/11/13 02:53:57;;;;;;;31.23;12.07;;;;;;;;;;5072574;28;20545;-69
2022/11/13 02:56:24;;;;;;;23.50;13.30;;;;;;;;;;5072931;28;20473;-69
2022/11/13 02:58:52;;;;;;;22.77;11.77;;;;;;;;;;5072945;28;20514;-69
2022/11/13 03:01:20;;;;;;;27.40;14.53;;;;;;;;;;5073026;28;20451;-69
2022/11/13 03:03:47;;;;;;;49.27;13.20;;;;;;;;;;5072874;28;20458;-69
2022/11/13 03:06:14;;;;;;;21.40;12.20;;;;;;;;;;5072781;28;20467;-69
2022/11/13 03:08:41;;;;;;;22.57;13.13;;;;;;;;;;5071790;28;20941;-70
2022/11/13 03:11:09;;;;;;;19.30;13.30;;;;;;;;;;5072611;28;20728;-69
2022/11/13 03:13:36;;;;;;;19.33;11.33;;;;;;;;;;5072167;28;20544;-69
2022/11/13 03:16:12;;;;;;;19.30;11.70;;;;;;;;;;5072440;28;20484;-69
2022/11/13 03:18:40;;;;;;;20.57;12.17;;;;;;;;;;5072599;28;20828;-69
2022/11/13 03:21:08;;;;;;;27.30;14.37;;;;;;;;;;5072723;28;20451;-69
2022/11/13 03:23:35;;;;;;;18.40;12.00;;;;;;;;;;5072394;28;20792;-69
2022/11/13 03:26:06;;;;;;;18.70;11.07;;;;;;;;;;5072713;28;20474;-69
2022/11/13 03:28:33;;;;;;;19.67;12.87;;;;;;;;;;5072636;28;20446;-69
2022/11/13 03:31:00;;;;;;;24.10;13.47;;;;;;;;;;5072769;28;20933;-69
2022/11/13 03:33:29;;;;;;;21.43;12.20;;;;;;;;;;5073172;28;20454;-70
2022/11/13 03:35:56;;;;;;;21.60;12.93;;;;;;;;;;5076683;28;20471;-69
2022/11/13 03:38:23;;;;;;;18.90;12.90;;;;;;;;;;5075379;28;20799;-69
2022/11/13 03:40:51;;;;;;;23.00;12.60;;;;;;;;;;5076083;28;20435;-69
2022/11/13 03:43:18;;;;;;;23.57;13.57;;;;;;;;;;5076617;28;20909;-69
2022/11/13 03:45:46;;;;;;;24.80;13.73;;;;;;;;;;5075823;28;20451;-69
2022/11/13 03:48:13;;;;;;;21.03;12.90;;;;;;;;;;5076383;28;20926;-69
2022/11/13 03:50:43;;;;;;;20.87;13.43;;;;;;;;;;5075995;28;20439;-69
2022/11/13 03:53:10;;;;;;;17.80;12.30;;;;;;;;;;5076439;28;20793;-69
2022/11/13 03:55:37;;;;;;;21.93;11.53;;;;;;;;;;5075627;28;20455;-69
2022/11/13 03:58:04;;;;;;;14.70;10.87;;;;;;;;;;5075971;28;20493;-69
2022/11/13 04:00:31;;;;;;;17.90;11.63;;;;;;;;;;5076320;28;20951;-69
2022/11/13 04:02:58;;;;;;;22.83;12.47;;;;;;;;;;5075866;28;20458;-69
2022/11/13 04:05:27;;;;;;;18.40;12.73;;;;;;;;;;5075889;28;20451;-69
2022/11/13 04:07:56;;;;;;;19.90;12.80;;;;;;;;;;5076060;28;20450;-69
2022/11/13 04:10:23;;;;;;;16.63;11.10;;;;;;;;;;5075349;28;20935;-69
2022/11/13 04:12:50;;;;;;;20.40;12.30;;;;;;;;;;5076026;28;20795;-69
2022/11/13 04:15:18;;;;;;;17.20;11.30;;;;;;;;;;5075257;28;20837;-69
2022/11/13 04:17:45;;;;;;;23.40;12.23;;;;;;;;;;5075164;28;20491;-69
2022/11/13 04:20:13;;;;;;;17.40;11.60;;;;;;;;;;5075785;28;20447;-69
2022/11/13 04:22:40;;;;;;;17.47;12.93;;;;;;;;;;5074689;28;20487;-69
2022/11/13 04:25:08;;;;;;;19.00;11.93;;;;;;;;;;5075207;28;20473;-69
2022/11/13 04:27:36;;;;;;;19.37;11.63;;;;;;;;;;5075261;28;20475;-69
2022/11/13 04:30:03;;;;;;;18.50;11.60;;;;;;;;;;5075204;28;20435;-69
2022/11/13 04:32:30;;;;;;;16.30;11.73;;;;;;;;;;5075521;28;20465;-69
2022/11/13 04:34:57;;;;;;;21.20;12.90;;;;;;;;;;5075279;28;20448;-69
2022/11/13 04:37:24;;;;;;;22.27;13.67;;;;;;;;;;5073845;28;20483;-69
2022/11/13 04:39:52;;;;;;;16.83;11.90;;;;;;;;;;5075350;28;20438;-69
2022/11/13 04:45:05;;;;;;;16.60;10.70;;;;;;;;;;5073726;28;20920;-69
2022/11/13 04:47:32;;;;;;;19.30;11.70;;;;;;;;;;5074724;28;20833;-69
2022/11/13 04:49:59;;;;;;;16.00;10.90;;;;;;;;;;5075088;28;20452;-69
2022/11/13 04:52:27;;;;;;;17.47;11.43;;;;;;;;;;5075131;28;20444;-69
2022/11/13 04:54:54;;;;;;;19.70;12.77;;;;;;;;;;5074858;28;20535;-69
2022/11/13 04:57:23;;;;;;;18.60;12.27;;;;;;;;;;5075117;28;20467;-69
2022/11/13 04:59:50;;;;;;;17.13;12.00;;;;;;;;;;5074883;28;20436;-69
2022/11/13 05:02:17;;;;;;;24.23;15.80;;;;;;;;;;5075256;28;20452;-69
2022/11/13 05:04:44;;;;;;;21.63;14.83;;;;;;;;;;5074779;28;20531;-69
2022/11/13 05:07:12;;;;;;;18.37;12.70;;;;;;;;;;5074695;28;20479;-70
2022/11/13 05:09:39;;;;;;;19.00;12.43;;;;;;;;;;5074293;28;20969;-70
2022/11/13 05:12:07;;;;;;;20.87;13.40;;;;;;;;;;5074646;28;20456;-69
2022/11/13 05:14:36;;;;;;;14.40;10.77;;;;;;;;;;5074272;28;20893;-69
2022/11/13 05:17:03;;;;;;;18.53;11.23;;;;;;;;;;5074807;28;20476;-69
2022/11/13 05:19:30;;;;;;;33.00;17.67;;;;;;;;;;5074447;28;20494;-69
2022/11/13 05:21:57;;;;;;;20.30;13.07;;;;;;;;;;5074771;28;20451;-69
2022/11/13 05:24:24;;;;;;;18.30;11.33;;;;;;;;;;5074398;28;20461;-69
2022/11/13 05:26:52;;;;;;;23.10;13.40;;;;;;;;;;5074612;28;20486;-69
2022/11/13 05:29:19;;;;;;;23.47;15.40;;;;;;;;;;5074373;28;20949;-69
2022/11/13 05:31:48;;;;;;;19.23;13.50;;;;;;;;;;5074654;28;20452;-69
2022/11/13 05:34:15;;;;;;;20.60;12.40;;;;;;;;;;5074057;28;20451;-69
2022/11/13 05:36:42;;;;;;;23.23;13.40;;;;;;;;;;5074515;28;20474;-69
2022/11/13 05:39:09;;;;;;;19.87;13.20;;;;;;;;;;5073019;28;20996;-69
2022/11/13 05:41:37;;;;;;;21.07;12.93;;;;;;;;;;5074159;28;20440;-69
2022/11/13 05:44:04;;;;;;;19.43;12.93;;;;;;;;;;5073834;28;20440;-69
2022/11/13 05:46:31;;;;;;;19.80;13.03;;;;;;;;;;5074217;28;20474;-69
2022/11/13 05:49:01;;;;;;;20.90;13.20;;;;;;;;;;5073871;28;20454;-69
2022/11/13 05:51:29;;;;;;;33.27;12.50;;;;;;;;;;5074120;28;20456;-70
2022/11/13 05:53:56;;;;;;;25.10;14.13;;;;;;;;;;5090793;28;20510;-70
2022/11/13 05:56:24;;;;;;;28.87;14.43;;;;;;;;;;5093801;28;20467;-69
2022/11/13 05:58:52;;;;;;;20.63;13.90;;;;;;;;;;5093678;28;20492;-69
2022/11/13 06:01:20;;;;;;;21.47;14.00;;;;;;;;;;5093339;28;20450;-70
2022/11/13 06:03:47;;;;;;;29.63;15.37;;;;;;;;;;5093420;28;21321;-70
2022/11/13 06:06:16;;;;;;;32.07;14.73;;;;;;;;;;5093672;28;20808;-70
2022/11/13 06:08:44;;;;;;;24.40;12.90;;;;;;;;;;5093981;28;20443;-69
2022/11/13 06:11:13;;;;;;;28.07;15.37;;;;;;;;;;5094026;28;20457;-69
2022/11/13 06:13:41;;;;;;;26.83;15.13;;;;;;;;;;5091561;28;20454;-69
2022/11/13 06:16:09;;;;;;;28.27;15.60;;;;;;;;;;5092896;28;20835;-69
2022/11/13 06:18:37;;;;;;;28.87;15.80;;;;;;;;;;5092992;28;20478;-69
2022/11/13 06:21:05;;;;;;;29.37;17.20;;;;;;;;;;5093607;28;20831;-69
2022/11/13 06:23:34;;;;;;;30.13;15.00;;;;;;;;;;5092792;28;20451;-69
2022/11/13 06:26:02;;;;;;;33.20;15.80;;;;;;;;;;5093113;28;20970;-69
2022/11/13 06:28:29;;;;;;;31.83;15.93;;;;;;;;;;5093084;28;20443;-70
2022/11/13 06:30:56;;;;;;;30.43;17.67;;;;;;;;;;5093289;28;20452;-70
2022/11/13 06:33:23;;;;;;;28.97;18.20;;;;;;;;;;5092756;28;20812;-69
2022/11/13 06:35:50;;;;;;;38.97;23.37;;;;;;;;;;5092717;28;20473;-70
2022/11/13 06:38:18;;;;;;;29.33;18.20;;;;;;;;;;5091912;28;20490;-70
2022/11/13 06:40:47;;;;;;;38.10;22.80;;;;;;;;;;5093058;28;20991;-70
2022/11/13 06:43:14;;;;;;;32.23;16.60;;;;;;;;;;5092760;28;20441;-70
2022/11/13 06:45:41;;;;;;;24.00;16.63;;;;;;;;;;5092316;28;20459;-70
2022/11/13 06:48:09;;;;;;;36.57;18.70;;;;;;;;;;5092959;28;20563;-70
2022/11/13 06:50:36;;;;;;;29.27;17.13;;;;;;;;;;5092703;28;20445;-70
2022/11/13 06:53:03;;;;;;;29.00;18.87;;;;;;;;;;5091963;28;20470;-70
2022/11/13 06:55:30;;;;;;;29.23;18.20;;;;;;;;;;5091717;28;20983;-70
2022/11/13 06:57:58;;;;;;;26.53;15.93;;;;;;;;;;5092819;28;20455;-70
2022/11/13 07:00:26;;;;;;;31.80;17.80;;;;;;;;;;5092494;28;20482;-70
2022/11/13 07:02:53;;;;;;;28.27;17.03;;;;;;;;;;5092843;28;20454;-70
2022/11/13 07:05:20;;;;;;;29.70;18.77;;;;;;;;;;5092844;28;20786;-70
2022/11/13 07:07:47;;;;;;;29.50;16.20;;;;;;;;;;5092427;28;20466;-70
2022/11/13 07:10:14;;;;;;;24.27;16.97;;;;;;;;;;5092657;28;20447;-70
2022/11/13 07:12:41;;;;;;;25.00;14.80;;;;;;;;;;5093170;28;20811;-70
2022/11/13 07:15:10;;;;;;;20.80;14.23;;;;;;;;;;5092439;28;20462;-70
2022/11/13 07:17:37;;;;;;;22.13;14.57;;;;;;;;;;5092598;28;20477;-70
2022/11/13 07:20:05;;;;;;;21.10;13.90;;;;;;;;;;5092786;28;20471;-70
2022/11/13 07:22:32;;;;;;;26.60;15.70;;;;;;;;;;5092856;28;20451;-70
2022/11/13 07:24:59;;;;;;;20.00;12.63;;;;;;;;;;5092173;28;20455;-70
2022/11/13 07:27:26;;;;;;;24.53;14.70;;;;;;;;;;5092815;28;20471;-70
2022/11/13 07:29:53;;;;;;;23.73;15.20;;;;;;;;;;5092899;28;20907;-70
2022/11/13 07:32:22;;;;;;;21.93;15.63;;;;;;;;;;5092508;28;20457;-70
2022/11/13 07:34:49;;;;;;;24.30;18.07;;;;;;;;;;5092151;28;20457;-70
2022/11/13 07:37:16;;;;;;;21.27;14.63;;;;;;;;;;5090874;28;20839;-70
2022/11/13 07:39:43;;;;;;;16.73;12.60;;;;;;;;;;5092278;28;20482;-70
2022/11/13 07:42:10;;;;;;;20.50;15.23;;;;;;;;;;5092792;28;20458;-70
2022/11/13 07:44:38;;;;;;;22.07;15.37;;;;;;;;;;5092132;28;20435;-70
2022/11/13 07:47:05;;;;;;;16.23;10.50;;;;;;;;;;5092176;28;20483;-70
2022/11/13 07:49:33;;;;;;;16.93;12.90;;;;;;;;;;5092629;28;20443;-70
2022/11/13 07:52:00;;;;;;;16.57;11.53;;;;;;;;;;5092577;28;20442;-70
2022/11/13 07:54:27;;;;;;;18.37;10.17;;;;;;;;;;5092153;28;20462;-70
2022/11/13 07:56:55;;;;;;;15.60;10.57;;;;;;;;;;5091344;28;20984;-70
2022/11/13 07:59:22;;;;;;;17.23;11.93;;;;;;;;;;5092100;28;20482;-70
2022/11/13 08:01:49;;;;;;;14.00;11.03;;;;;;;;;;5092408;28;20546;-70
2022/11/13 08:04:16;;;;;;;16.00;10.17;;;;;;;;;;5092056;28;20951;-70
2022/11/13 08:06:44;;;;;;;13.00;9.47;;;;;;;;;;5091997;28;20462;-70
2022/11/13 08:09:11;;;;;;;15.87;11.10;;;;;;;;;;5092583;28;20450;-70
2022/11/13 08:11:39;;;;;;;12.13;9.40;;;;;;;;;;5092413;28;20812;-70
2022/11/13 08:14:06;;;;;;;10.30;8.63;;;;;;;;;;5091620;28;20470;-70
2022/11/13 08:16:33;;;;;;;10.57;8.57;;;;;;;;;;5092269;28;20489;-70
2022/11/13 08:19:00;;;;;;;10.33;7.43;;;;;;;;;;5091889;28;20478;-70
2022/11/13 08:21:27;;;;;;;10.63;7.43;;;;;;;;;;5081728;28;20454;-71
2022/11/13 08:23:56;;;;;;;8.27;7.13;;;;;;;;;;5093827;28;20520;-71
2022/11/13 08:26:23;;;;;;;8.73;7.20;;;;;;;;;;5094552;28;20471;-71
2022/11/13 08:28:50;;;;;;;12.27;8.20;;;;;;;;;;5093473;28;20466;-71
2022/11/13 08:31:17;;;;;;;8.90;7.97;;;;;;;;;;5094330;28;20446;-70
2022/11/13 08:33:44;;;;;;;9.73;7.23;;;;;;;;;;5092996;28;20455;-71
2022/11/13 08:36:12;;;;;;;8.23;7.27;;;;;;;;;;5093613;28;20466;-70
2022/11/13 08:38:39;;;;;;;8.60;7.53;;;;;;;;;;5092428;28;20835;-70
2022/11/13 08:41:08;;;;;;;11.63;8.40;;;;;;;;;;5093967;28;20461;-70
2022/11/13 08:43:36;;;;;;;10.70;7.77;;;;;;;;;;5093086;28;20454;-70
2022/11/13 08:46:03;;;;;;;8.93;8.00;;;;;;;;;;5093760;28;20823;-70
2022/11/13 08:48:30;;;;;;;10.03;8.50;;;;;;;;;;5094052;28;20728;-70
2022/11/13 08:50:58;;;;;;;9.03;7.37;;;;;;;;;;5093571;28;20817;-70
2022/11/13 08:53:25;;;;;;;9.40;6.90;;;;;;;;;;5093840;28;20451;-70
2022/11/13 08:55:52;;;;;;;12.10;8.50;;;;;;;;;;5093510;28;20898;-70
2022/11/13 08:58:21;;;;;;;10.13;8.03;;;;;;;;;;5093163;28;20481;-70
2022/11/13 09:00:48;;;;;;;8.87;7.50;;;;;;;;;;5093412;28;20478;-71
2022/11/13 09:03:15;;;;;;;9.10;8.00;;;;;;;;;;5093723;28;20457;-70
2022/11/13 09:05:42;;;;;;;9.47;7.40;;;;;;;;;;5092084;28;20537;-70
2022/11/13 09:08:10;;;;;;;9.30;8.00;;;;;;;;;;5093326;28;20486;-71
2022/11/13 09:10:37;;;;;;;10.17;8.60;;;;;;;;;;5094274;28;20480;-70
2022/11/13 09:13:07;;;;;;;9.20;7.90;;;;;;;;;;5093568;28;20477;-70
2022/11/13 09:15:37;;;;;;;10.60;8.43;;;;;;;;;;5093956;28;20512;-70
2022/11/13 09:18:05;;;;;;;14.70;8.50;;;;;;;;;;5094796;28;20449;-70
2022/11/13 09:20:33;;;;;;;12.73;9.03;;;;;;;;;;5095169;28;20490;-71
2022/11/13 09:23:00;;;;;;;15.30;10.27;;;;;;;;;;5095350;28;20826;-71
2022/11/13 09:25:28;;;;;;;12.90;9.70;;;;;;;;;;5094576;28;20450;-71
2022/11/13 09:27:56;;;;;;;14.87;10.33;;;;;;;;;;5094826;28;20450;-71
2022/11/13 09:30:23;;;;;;;12.27;9.50;;;;;;;;;;5094813;28;20431;-71
2022/11/13 09:32:54;;;;;;;13.33;9.50;;;;;;;;;;5094559;28;20453;-71
2022/11/13 09:35:32;;;;;;;12.40;8.93;;;;;;;;;;5094680;28;20435;-71
2022/11/13 09:38:00;;;;;;;15.07;9.50;;;;;;;;;;5094100;28;20524;-72
2022/11/13 09:40:30;;;;;;;15.33;9.90;;;;;;;;;;5094466;28;20466;-72
2022/11/13 09:42:57;;;;;;;13.20;9.87;;;;;;;;;;5094887;28;20442;-72
2022/11/13 09:45:24;;;;;;;17.47;10.00;;;;;;;;;;5094813;28;20446;-72
2022/11/13 09:47:52;;;;;;;14.00;9.37;;;;;;;;;;5094365;28;20481;-72
2022/11/13 09:50:23;;;;;;;12.47;9.20;;;;;;;;;;5094784;28;20803;-72
2022/11/13 09:52:50;;;;;;;14.37;9.53;;;;;;;;;;5094408;28;20454;-72
2022/11/13 09:55:19;;;;;;;10.53;8.97;;;;;;;;;;5094480;28;20462;-72
2022/11/13 09:57:48;;;;;;;14.53;9.27;;;;;;;;;;5094612;28;20475;-72
2022/11/13 10:00:17;;;;;;;11.73;8.90;;;;;;;;;;5094434;28;20475;-72
2022/11/13 10:02:50;;;;;;;18.10;10.13;;;;;;;;;;5094483;28;20870;-72
2022/11/13 10:05:24;;;;;;;12.50;8.60;;;;;;;;;;5094535;28;20543;-72
2022/11/13 10:07:56;;;;;;;57.13;26.07;;;;;;;;;;5094096;28;20542;-72
2022/11/13 10:10:48;;;;;;;16.53;12.70;;;;;;;;;;5094627;28;20798;-72
2022/11/13 10:13:19;;;;;;;17.33;10.50;;;;;;;;;;5094227;28;20450;-72
2022/11/13 10:15:49;;;;;;;31.27;23.77;;;;;;;;;;5094214;28;20443;-72
2022/11/13 10:18:18;;;;;;;14.00;12.00;;;;;;;;;;5094199;28;20431;-72
2022/11/13 10:20:48;;;;;;;10.73;9.43;;;;;;;;;;5093822;28;20482;-72
2022/11/13 10:23:17;;;;;;;14.10;8.67;;;;;;;;;;5093825;28;20465;-72
2022/11/13 10:25:44;;;;;;;12.20;9.07;;;;;;;;;;5094024;28;20447;-72
2022/11/13 10:28:14;;;;;;;12.00;10.20;;;;;;;;;;5094062;28;20447;-72
2022/11/13 10:30:41;;;;;;;13.67;9.70;;;;;;;;;;5094338;28;20453;-72
2022/11/13 10:33:10;;;;;;;13.37;8.37;;;;;;;;;;5093654;28;20451;-72
2022/11/13 10:35:44;;;;;;;19.60;9.37;;;;;;;;;;5093911;28;20798;-72
2022/11/13 10:38:17;;;;;;;13.00;9.67;;;;;;;;;;5093651;28;20484;-72
2022/11/13 10:40:44;;;;;;;9.80;7.83;;;;;;;;;;5093523;28;20479;-72
2022/11/13 10:43:14;;;;;;;11.67;9.40;;;;;;;;;;5093423;28;20436;-72
2022/11/13 10:45:42;;;;;;;10.50;8.07;;;;;;;;;;5093410;28;20473;-72
2022/11/13 10:48:19;;;;;;;9.40;7.87;;;;;;;;;;5093622;28;20515;-72
2022/11/13 10:50:53;;;;;;;16.40;9.40;;;;;;;;;;5093680;28;20855;-72
2022/11/13 10:53:21;;;;;;;10.73;8.60;;;;;;;;;;5093515;28;20460;-72
2022/11/13 10:55:50;;;;;;;11.13;8.17;;;;;;;;;;5093550;28;20471;-71
2022/11/13 10:58:19;;;;;;;12.87;7.83;;;;;;;;;;5093495;28;20446;-71
2022/11/13 11:00:48;;;;;;;12.10;8.80;;;;;;;;;;5093411;28;20479;-72
2022/11/13 11:03:16;;;;;;;9.83;7.50;;;;;;;;;;5093494;28;20534;-72
2022/11/13 11:05:52;;;;;;;9.57;6.97;;;;;;;;;;5093083;28;20458;-72
2022/11/13 11:08:23;;;;;;;11.77;8.53;;;;;;;;;;5093229;28;20435;-72
2022/11/13 11:13:41;;;;;;;10.63;8.87;;;;;;;;;;5093088;28;20472;-76
2022/11/13 11:16:09;;;;;;;12.07;8.70;;;;;;;;;;5092979;28;20471;-72
2022/11/13 11:18:38;;;;;;;15.40;13.03;;;;;;;;;;5093253;28;20457;-72
2022/11/13 11:21:08;;;;;;;11.43;8.90;;;;;;;;;;5093199;28;20493;-72
2022/11/13 11:23:38;;;;;;;24.80;21.53;;;;;;;;;;5093160;28;20486;-72
2022/11/13 11:26:10;;;;;;;11.70;10.07;;;;;;;;;;5093257;28;20551;-72
2022/11/13 11:28:40;;;;;;;9.87;8.40;;;;;;;;;;5093356;28;20439;-72
2022/11/13 11:31:11;;;;;;;13.57;8.60;;;;;;;;;;5092839;28;20928;-72
2022/11/13 11:33:45;;;;;;;8.90;7.60;;;;;;;;;;5093428;28;20457;-72
2022/11/13 11:36:16;;;;;;;9.90;7.27;;;;;;;;;;5093127;28;20561;-72
2022/11/13 11:38:49;;;;;;;13.20;8.60;;;;;;;;;;5092755;28;20435;-72
2022/11/13 11:41:19;;;;;;;11.70;8.63;;;;;;;;;;5092515;28;20999;-72
2022/11/13 11:43:48;;;;;;;8.70;7.63;;;;;;;;;;5093210;28;20438;-72
2022/11/13 11:46:17;;;;;;;9.17;7.70;;;;;;;;;;5092854;28;20470;-72
2022/11/13 11:48:44;;;;;;;12.93;7.87;;;;;;;;;;5093009;28;20455;-72
2022/11/13 11:51:17;;;;;;;8.47;7.57;;;;;;;;;;5092742;28;20438;-72
2022/11/13 11:53:47;;;;;;;8.80;7.80;;;;;;;;;;5093031;28;20441;-72
2022/11/13 11:56:22;;;;;;;8.53;7.03;;;;;;;;;;5096510;28;20481;-72
2022/11/13 11:59:04;;;;;;;7.90;6.60;;;;;;;;;;5096769;28;20438;-72
2022/11/13 12:01:40;;;;;;;8.27;6.40;;;;;;;;;;5083987;28;20490;-72
2022/11/13 12:04:13;;;;;;;9.73;7.50;;;;;;;;;;5096842;28;20458;-72
2022/11/13 12:06:45;;;;;;;9.27;6.57;;;;;;;;;;5097081;28;20479;-72
2022/11/13 12:09:18;;;;;;;9.80;7.37;;;;;;;;;;5096476;28;20435;-72
2022/11/13 12:11:51;;;;;;;8.43;7.33;;;;;;;;;;5096421;28;20431;-72
2022/11/13 12:14:22;;;;;;;9.00;6.93;;;;;;;;;;5096236;28;20468;-72
2022/11/13 12:16:51;;;;;;;10.13;9.10;;;;;;;;;;5097257;28;20986;-72
2022/11/13 12:19:38;;;;;;;13.50;11.43;;;;;;;;;;5096551;28;20496;-72
2022/11/13 12:22:10;;;;;;;9.83;8.30;;;;;;;;;;5096272;28;20423;-72
2022/11/13 12:24:52;;;;;;;8.83;7.90;;;;;;;;;;5096458;28;20435;-72
2022/11/13 12:27:25;;;;;;;10.63;9.13;;;;;;;;;;5093114;28;21013;-74
2022/11/13 12:30:00;;;;;;;9.10;7.00;;;;;;;;;;5094377;28;20980;-73
2022/11/13 12:32:51;;;;;;;32.83;30.30;;;;;;;;;;5094479;28;20780;-73
2022/11/13 12:35:19;;;;;;;8.37;6.80;;;;;;;;;;5094437;28;20449;-71
2022/11/13 12:37:51;;;;;;;9.40;6.57;;;;;;;;;;5094732;28;20468;-73
2022/11/13 12:40:24;;;;;;;8.57;6.80;;;;;;;;;;5094523;28;20486;-71
2022/11/13 12:42:55;;;;;;;8.37;6.90;;;;;;;;;;5094643;28;20431;-71
2022/11/13 12:45:26;;;;;;;7.50;6.23;;;;;;;;;;5094897;28;20861;-71
2022/11/13 12:47:53;;;;;;;11.80;7.70;;;;;;;;;;5094903;28;20466;-71
2022/11/13 12:50:25;;;;;;;12.50;7.80;;;;;;;;;;5094733;28;20453;-73
2022/11/13 12:52:59;;;;;;;9.37;7.57;;;;;;;;;;5094494;28;20458;-72
2022/11/13 12:55:27;;;;;;;15.43;9.67;;;;;;;;;;5094394;28;20854;-72
2022/11/13 12:57:57;;;;;;;14.33;9.03;;;;;;;;;;5093839;28;20489;-72
2022/11/13 13:00:27;;;;;;;15.20;11.13;;;;;;;;;;5094246;28;20471;-72
2022/11/13 13:03:05;;;;;;;18.30;15.03;;;;;;;;;;5094549;28;20458;-72
2022/11/13 13:05:38;;;;;;;15.40;13.80;;;;;;;;;;5095548;28;20435;-72
2022/11/13 13:08:15;;;;;;;9.03;5.83;;;;;;;;;;5095012;28;20518;-71
2022/11/13 13:10:47;;;;;;;11.27;5.83;;;;;;;;;;5095423;28;20937;-71
2022/11/13 13:13:18;;;;;;;8.00;5.97;;;;;;;;;;5095364;28;20431;-71
2022/11/13 13:15:46;;;;;;;10.37;6.07;;;;;;;;;;5095230;28;20434;-71
2022/11/13 13:18:24;;;;;;;8.37;6.13;;;;;;;;;;5095246;28;20451;-71
2022/11/13 13:20:59;;;;;;;12.40;7.20;;;;;;;;;;5095231;28;20983;-72
2022/11/13 13:23:28;;;;;;;15.00;10.93;;;;;;;;;;5095276;28;20908;-71
2022/11/13 13:26:02;;;;;;;11.30;8.13;;;;;;;;;;5095362;28;20471;-71
2022/11/13 13:28:32;;;;;;;106.97;96.30;;;;;;;;;;5095193;28;20444;-71
2022/11/13 13:31:04;;;;;;;10.53;9.40;;;;;;;;;;5094827;28;20439;-71
2022/11/13 13:33:38;;;;;;;81.93;74.07;;;;;;;;;;5094763;28;20439;-71
2022/11/13 13:36:12;;;;;;;38.10;34.47;;;;;;;;;;5094722;28;20479;-71
2022/11/13 13:38:44;;;;;;;55.00;49.73;;;;;;;;;;5094751;28;20438;-71
2022/11/13 13:41:17;;;;;;;16.00;14.03;;;;;;;;;;5094541;28;20473;-71
2022/11/13 13:43:53;;;;;;;8.90;7.60;;;;;;;;;;5094631;28;20492;-71
2022/11/13 13:46:21;;;;;;;14.43;8.87;;;;;;;;;;5094915;28;20474;-71
2022/11/13 13:48:49;;;;;;;14.07;8.53;;;;;;;;;;5094699;28;20453;-71
2022/11/13 13:51:20;;;;;;;12.70;8.50;;;;;;;;;;5094682;28;20447;-72
2022/11/13 13:53:48;;;;;;;9.10;7.07;;;;;;;;;;5094704;28;20532;-71
2022/11/13 13:56:15;;;;;;;13.63;9.17;;;;;;;;;;5094524;28;20471;-71
2022/11/13 13:58:43;;;;;;;10.10;7.20;;;;;;;;;;5094530;28;20451;-71
2022/11/13 14:01:15;;;;;;;12.20;8.47;;;;;;;;;;5094216;28;20480;-71
2022/11/13 14:03:42;;;;;;;11.07;7.33;;;;;;;;;;5094541;28;20431;-71
2022/11/13 14:06:19;;;;;;;8.03;6.23;;;;;;;;;;5094083;28;20474;-72
2022/11/13 14:08:47;;;;;;;10.00;7.90;;;;;;;;;;5094201;28;20430;-72
2022/11/13 14:11:18;;;;;;;18.03;14.50;;;;;;;;;;5094474;28;20492;-72
2022/11/13 14:13:45;;;;;;;10.37;6.53;;;;;;;;;;5093972;28;20458;-72
2022/11/13 14:16:14;;;;;;;12.37;10.97;;;;;;;;;;5093895;28;20475;-71
2022/11/13 14:18:41;;;;;;;10.00;8.10;;;;;;;;;;5092956;28;20431;-71
2022/11/13 14:21:11;;;;;;;10.30;7.97;;;;;;;;;;5093945;28;20486;-71
2022/11/13 14:23:42;;;;;;;10.00;7.50;;;;;;;;;;5094096;28;20454;-71
2022/11/13 14:26:10;;;;;;;9.47;7.33;;;;;;;;;;5093980;28;20468;-71
2022/11/13 14:28:44;;;;;;;9.03;6.83;;;;;;;;;;5094087;28;20852;-71
2022/11/13 14:31:13;;;;;;;12.83;8.70;;;;;;;;;;5094069;28;20438;-71
2022/11/13 14:33:44;;;;;;;12.77;8.53;;;;;;;;;;5093577;28;20450;-71
2022/11/13 14:36:11;;;;;;;13.93;10.80;;;;;;;;;;5093908;28;20819;-71
2022/11/13 14:38:42;;;;;;;43.37;30.47;;;;;;;;;;5093862;28;20450;-72